Time;durP1;ratioP1;P1;durP2;ratioP2;P2;SDS_P1;SDS_P2;PMS_P1;PMS_P2;Temp;Humidity;BMP_temperature;BMP_pressure;BME280_temperature;BME280_humidity;BME280_pressure;Samples;Min_cycle;Max_cycle;Signal;HPM_P1;HPM_P2
2022/12/31 00:02:11;;;;;;;126.90;53.00;;;;;;;8.47;100.00;101441.13;4964039;28;20034;-84
2022/12/31 00:04:37;;;;;;;125.25;53.25;;;;;;;8.55;100.00;101436.03;4996400;28;20441;-86
2022/12/31 00:07:02;;;;;;;122.68;50.92;;;;;;;8.52;100.00;101446.84;4998413;28;20061;-85
2022/12/31 00:09:28;;;;;;;130.70;52.15;;;;;;;8.58;100.00;101449.03;4998275;28;20037;-84
2022/12/31 00:11:53;;;;;;;122.03;51.00;;;;;;;8.57;100.00;101442.06;4996540;28;20121;-84
2022/12/31 00:14:19;;;;;;;132.32;53.60;;;;;;;8.41;100.00;101446.06;4996117;28;20034;-83
2022/12/31 00:16:44;;;;;;;143.65;58.20;;;;;;;8.39;100.00;101442.69;4995947;28;20381;-85
2022/12/31 00:19:11;;;;;;;139.48;58.58;;;;;;;8.37;100.00;101434.91;4978669;28;20435;-85
2022/12/31 00:21:37;;;;;;;131.88;54.03;;;;;;;8.47;100.00;101441.13;4996305;28;20042;-85
2022/12/31 00:24:04;;;;;;;124.68;52.60;;;;;;;8.59;100.00;101432.19;4996230;28;20113;-84
2022/12/31 00:26:31;;;;;;;130.40;53.63;;;;;;;8.75;100.00;101437.88;4995931;28;20038;-84
2022/12/31 00:28:59;;;;;;;128.98;52.92;;;;;;;8.67;100.00;101437.69;4996907;28;20536;-86
2022/12/31 00:31:27;;;;;;;120.07;51.42;;;;;;;8.72;100.00;101438.13;4989886;28;20035;-83
2022/12/31 00:33:53;;;;;;;125.93;51.67;;;;;;;8.78;100.00;101440.25;4999849;28;20121;-83
2022/12/31 00:36:21;;;;;;;122.47;50.47;;;;;;;8.90;100.00;101442.84;4997005;28;20065;-85
2022/12/31 00:38:48;;;;;;;121.30;51.70;;;;;;;9.07;100.00;101450.19;4997216;28;20038;-84
2022/12/31 00:41:16;;;;;;;117.88;49.53;;;;;;;9.19;100.00;101449.16;4996666;28;20504;-84
2022/12/31 00:43:42;;;;;;;117.20;48.83;;;;;;;9.20;100.00;101448.19;4996148;28;20125;-84
2022/12/31 00:46:08;;;;;;;131.82;52.17;;;;;;;8.99;100.00;101448.19;4996576;28;20034;-86
2022/12/31 00:48:34;;;;;;;124.25;50.53;;;;;;;8.91;100.00;101460.38;4998151;28;20037;-87
2022/12/31 00:51:01;;;;;;;120.60;50.25;;;;;;;8.91;100.00;101465.69;4999001;28;20030;-85
2022/12/31 00:53:28;;;;;;;140.13;55.25;;;;;;;8.80;100.00;101477.97;5006365;28;20470;-84
2022/12/31 00:56:09;;;;;;;129.10;50.60;;;;;;;8.70;100.00;101486.78;5013648;28;20033;-84
2022/12/31 00:58:40;;;;;;;118.57;48.65;;;;;;;8.59;100.00;101490.31;4998424;28;20509;-85
2022/12/31 01:01:11;;;;;;;125.03;50.90;;;;;;;8.47;100.00;101496.59;4972754;28;20065;-82
2022/12/31 01:03:46;;;;;;;128.45;50.17;;;;;;;8.64;100.00;101511.94;4990778;28;20034;-83
2022/12/31 01:06:15;;;;;;;126.43;50.58;;;;;;;8.75;100.00;101513.66;5017676;23;20042;-86
2022/12/31 01:08:40;;;;;;;119.05;48.10;;;;;;;8.85;100.00;101519.06;5004258;28;20038;-81
2022/12/31 01:11:18;;;;;;;118.30;48.40;;;;;;;9.00;100.00;101523.06;5002809;28;20114;-82
2022/12/31 01:13:48;;;;;;;125.47;50.13;;;;;;;8.67;100.00;101516.97;5004388;28;20030;-81
2022/12/31 01:16:14;;;;;;;121.60;48.58;;;;;;;8.70;100.00;101522.00;4998725;28;20050;-82
2022/12/31 01:18:40;;;;;;;124.43;47.33;;;;;;;8.67;100.00;101522.25;4996429;28;20030;-83
2022/12/31 01:21:08;;;;;;;134.52;50.35;;;;;;;8.60;100.00;101530.78;5001050;28;20042;-86
2022/12/31 01:23:34;;;;;;;117.80;50.17;;;;;;;8.71;100.00;101528.13;4996957;28;20034;-87
2022/12/31 01:26:02;;;;;;;116.00;46.75;;;;;;;8.60;100.00;101526.34;4998668;28;20041;-79
2022/12/31 01:28:28;;;;;;;117.32;46.88;;;;;;;8.55;100.00;101522.41;5001767;28;20049;-83
2022/12/31 01:30:55;;;;;;;118.75;49.17;;;;;;;8.43;100.00;101529.50;4997788;28;20042;-80
2022/12/31 01:33:23;;;;;;;122.85;48.53;;;;;;;8.34;100.00;101530.25;4999047;28;20037;-81
2022/12/31 01:35:50;;;;;;;128.73;48.97;;;;;;;8.36;100.00;101527.47;5000822;28;20030;-84
2022/12/31 01:38:16;;;;;;;122.90;48.25;;;;;;;8.39;100.00;101525.44;4999009;28;20066;-82
2022/12/31 01:40:41;;;;;;;118.40;49.10;;;;;;;8.44;100.00;101525.06;4998071;28;20039;-85
2022/12/31 01:43:17;;;;;;;115.22;47.35;;;;;;;8.58;100.00;101523.00;4979134;28;20118;-90
2022/12/31 01:45:45;;;;;;;106.55;44.05;;;;;;;8.83;100.00;101517.38;4996230;28;20048;-82
2022/12/31 01:48:14;;;;;;;101.25;42.13;;;;;;;9.04;100.00;101529.78;4997330;28;20030;-86
2022/12/31 01:50:40;;;;;;;108.97;45.00;;;;;;;9.05;100.00;101528.81;4998188;28;20066;-87
2022/12/31 01:53:08;;;;;;;108.57;43.90;;;;;;;9.14;100.00;101530.69;5000663;28;20066;-84
2022/12/31 01:55:52;;;;;;;102.70;42.75;;;;;;;8.98;100.00;101530.31;5008190;28;20085;-81
2022/12/31 01:58:22;;;;;;;100.72;41.15;;;;;;;9.13;100.00;101521.91;5012319;28;20137;-85
2022/12/31 02:00:50;;;;;;;100.28;42.03;;;;;;;9.05;100.00;101537.56;5002507;28;20104;-85
2022/12/31 02:03:21;;;;;;;99.90;40.90;;;;;;;9.00;100.00;101529.19;5001550;28;20121;-83
2022/12/31 02:06:05;;;;;;;107.38;43.65;;;;;;;8.92;100.00;101534.25;5000396;28;20132;-87
2022/12/31 02:08:32;;;;;;;96.35;39.78;;;;;;;8.97;100.00;101533.91;5003591;28;20041;-86
2022/12/31 02:10:58;;;;;;;93.38;39.33;;;;;;;8.92;100.00;101530.78;5000377;28;20453;-84
2022/12/31 02:13:24;;;;;;;88.85;38.05;;;;;;;9.17;100.00;101527.78;4998783;28;20050;-87
2022/12/31 02:16:09;;;;;;;83.20;37.00;;;;;;;9.26;100.00;101519.06;4999175;28;20066;-88
2022/12/31 02:18:41;;;;;;;89.85;37.30;;;;;;;9.26;100.00;101524.38;5000853;28;20034;-87
2022/12/31 02:21:31;;;;;;;77.70;33.70;;;;;;;9.34;100.00;101543.94;5000425;28;20045;-87
2022/12/31 02:24:31;;;;;;;79.28;34.83;;;;;;;9.38;100.00;101539.19;4998114;28;20034;-86
2022/12/31 02:27:28;;;;;;;78.53;33.80;;;;;;;9.28;100.00;101533.00;4997162;28;20043;-84
2022/12/31 02:30:07;;;;;;;70.95;31.30;;;;;;;9.36;100.00;101530.56;4988989;28;20054;-81
2022/12/31 02:32:47;;;;;;;77.05;32.05;;;;;;;9.26;100.00;101532.31;4998326;28;20045;-84
2022/12/31 02:35:37;;;;;;;72.43;30.50;;;;;;;9.49;100.00;101536.50;5001625;28;20500;-81
2022/12/31 02:38:30;;;;;;;64.43;29.73;;;;;;;9.27;100.00;101540.13;4999892;28;20042;-84
2022/12/31 02:40:56;;;;;;;64.30;30.95;;;;;;;9.28;100.00;101538.28;4998012;28;20043;-83
2022/12/31 02:43:22;;;;;;;72.57;31.75;;;;;;;9.20;100.00;101540.75;5005156;28;20072;-81
2022/12/31 02:46:25;;;;;;;75.13;33.28;;;;;;;9.08;100.00;101552.38;5003532;28;20038;-82
2022/12/31 02:49:06;;;;;;;75.78;32.75;;;;;;;9.22;100.00;101554.69;4948076;29;20619;-80
2022/12/31 02:52:04;;;;;;;73.95;30.95;;;;;;;9.43;100.00;101558.19;4966769;28;20042;-82
2022/12/31 02:55:02;;;;;;;69.07;31.98;;;;;;;9.27;100.00;101552.50;5010173;28;20047;-80
2022/12/31 02:57:46;;;;;;;70.47;31.27;;;;;;;9.13;100.00;101552.81;5003633;28;20049;-80
2022/12/31 03:03:12;;;;;;;69.57;29.27;;;;;;;9.01;100.00;101549.38;4985183;28;20055;-81
2022/12/31 03:05:42;;;;;;;60.25;29.88;;;;;;;8.82;100.00;101551.84;5001621;28;20105;-82
2022/12/31 03:08:08;;;;;;;61.17;28.63;;;;;;;8.80;100.00;101559.91;5006203;28;20038;-82
2022/12/31 03:10:34;;;;;;;69.38;31.73;;;;;;;8.72;100.00;101554.41;5008610;28;20034;-80
2022/12/31 03:13:03;;;;;;;64.63;29.65;;;;;;;8.67;100.00;101564.53;5009392;28;20034;-82
2022/12/31 03:15:31;;;;;;;67.90;30.95;;;;;;;8.69;100.00;101562.59;4991001;28;20363;-80
2022/12/31 03:18:04;;;;;;;81.40;34.60;;;;;;;8.73;100.00;101561.38;5001261;28;20042;-80
2022/12/31 03:23:24;;;;;;;91.70;39.50;;;;;;;8.75;100.00;101562.09;4995415;28;20065;-80
2022/12/31 03:25:52;;;;;;;89.30;38.92;;;;;;;8.78;100.00;101567.13;5012508;28;20096;-79
2022/12/31 03:28:19;;;;;;;90.88;39.83;;;;;;;8.77;100.00;101560.16;5003678;28;20488;-81
2022/12/31 03:30:50;;;;;;;91.90;40.28;;;;;;;8.67;100.00;101563.69;5002424;28;20039;-82
2022/12/31 03:33:17;;;;;;;94.20;39.55;;;;;;;8.78;100.00;101569.75;5003850;28;20034;-82
2022/12/31 03:35:47;;;;;;;94.57;41.17;;;;;;;9.00;100.00;101568.00;5005001;28;20034;-82
2022/12/31 03:38:14;;;;;;;98.45;44.42;;;;;;;8.97;100.00;101560.34;5002368;28;20389;-81
2022/12/31 03:40:51;;;;;;;95.93;43.53;;;;;;;8.74;100.00;101564.88;5000366;28;20038;-80
2022/12/31 03:43:20;;;;;;;96.55;42.20;;;;;;;8.86;100.00;101561.22;5000402;28;20038;-81
2022/12/31 03:45:52;;;;;;;105.45;43.47;;;;;;;8.71;100.00;101562.47;4997716;28;20497;-82
2022/12/31 03:48:22;;;;;;;101.78;43.25;;;;;;;8.45;100.00;101559.28;5001084;28;20062;-80
2022/12/31 03:50:48;;;;;;;102.57;40.60;;;;;;;8.60;100.00;101563.34;4999610;28;20061;-82
2022/12/31 03:53:14;;;;;;;110.90;42.83;;;;;;;8.55;100.00;101560.22;5001053;28;20109;-80
2022/12/31 03:55:39;;;;;;;96.38;42.55;;;;;;;8.55;100.00;101559.41;5002365;28;20464;-81
2022/12/31 03:58:10;;;;;;;102.63;40.58;;;;;;;8.58;100.00;101567.06;5004834;28;20172;-81
2022/12/31 04:00:36;;;;;;;98.18;41.35;;;;;;;8.63;100.00;101565.72;5004516;28;20038;-82
2022/12/31 04:03:01;;;;;;;97.68;40.20;;;;;;;8.77;100.00;101575.19;5005712;28;20503;-79
2022/12/31 04:05:27;;;;;;;93.88;38.38;;;;;;;8.80;100.00;101581.06;5000585;28;20046;-82
2022/12/31 04:07:54;;;;;;;87.07;36.00;;;;;;;8.82;100.00;101583.56;5000126;28;20157;-80
2022/12/31 04:10:20;;;;;;;85.97;35.30;;;;;;;9.03;100.00;101576.53;4999368;28;20038;-82
2022/12/31 04:12:46;;;;;;;81.72;35.50;;;;;;;8.83;100.00;101574.69;4998048;28;20061;-81
2022/12/31 04:15:18;;;;;;;85.10;33.70;;;;;;;8.82;100.00;101584.41;4997377;28;20034;-80
2022/12/31 04:17:44;;;;;;;87.28;35.47;;;;;;;8.76;100.00;101595.50;4997809;28;20084;-80
2022/12/31 04:20:10;;;;;;;79.78;34.15;;;;;;;8.75;100.00;101599.09;4996896;28;20102;-81
2022/12/31 04:22:36;;;;;;;78.97;34.10;;;;;;;8.79;100.00;101589.94;4996360;28;20057;-81
2022/12/31 04:25:02;;;;;;;84.45;34.30;;;;;;;8.75;100.00;101591.16;4997610;28;20038;-82
2022/12/31 04:27:28;;;;;;;83.43;35.05;;;;;;;8.67;100.00;101593.59;4996823;28;20039;-80
2022/12/31 04:29:54;;;;;;;82.78;35.15;;;;;;;8.70;100.00;101601.28;4995984;28;20089;-81
2022/12/31 04:32:19;;;;;;;85.25;34.70;;;;;;;8.76;100.00;101603.41;4997067;28;20397;-80
2022/12/31 04:34:45;;;;;;;86.03;37.38;;;;;;;8.73;100.00;101616.03;4998670;28;20038;-80
2022/12/31 04:37:10;;;;;;;80.53;34.90;;;;;;;8.71;100.00;101607.41;4998761;28;20050;-81
2022/12/31 04:39:36;;;;;;;77.40;34.38;;;;;;;8.90;100.00;101623.44;4998018;28;20049;-80
2022/12/31 04:42:04;;;;;;;96.10;36.40;;;;;;;8.97;100.00;101634.38;4998700;28;20083;-80
2022/12/31 04:44:33;;;;;;;83.72;35.53;;;;;;;8.94;100.00;101629.31;4998657;28;20043;-81
2022/12/31 04:47:00;;;;;;;85.45;36.63;;;;;;;8.98;100.00;101636.06;4997334;28;20501;-79
2022/12/31 04:49:25;;;;;;;95.32;40.33;;;;;;;9.01;100.00;101635.81;5007329;28;20050;-85
2022/12/31 04:51:54;;;;;;;92.25;39.55;;;;;;;9.05;100.00;101634.59;5002841;28;20183;-82
2022/12/31 04:54:19;;;;;;;83.82;36.78;;;;;;;9.13;100.00;101634.78;4999915;28;20061;-81
2022/12/31 04:56:45;;;;;;;96.93;41.03;;;;;;;9.08;100.00;101626.41;4999713;28;20125;-81
2022/12/31 04:59:10;;;;;;;94.63;40.92;;;;;;;9.11;100.00;101632.28;5000856;28;20034;-81
2022/12/31 05:01:37;;;;;;;87.68;38.40;;;;;;;9.11;100.00;101642.03;5000371;28;20030;-81
2022/12/31 05:04:02;;;;;;;92.65;40.53;;;;;;;9.13;100.00;101650.66;4999271;28;20121;-81
2022/12/31 05:06:28;;;;;;;97.95;42.50;;;;;;;9.05;100.00;101642.53;4999125;28;20073;-83
2022/12/31 05:08:53;;;;;;;91.22;41.05;;;;;;;9.12;100.00;101641.03;4997574;28;20553;-82
2022/12/31 05:11:19;;;;;;;92.53;41.17;;;;;;;9.07;100.00;101638.78;4999306;28;20057;-80
2022/12/31 05:13:44;;;;;;;101.57;41.97;;;;;;;8.94;100.00;101655.78;4998841;28;20169;-80
2022/12/31 05:16:10;;;;;;;93.95;42.38;;;;;;;8.88;100.00;101654.47;4999998;28;20480;-82
2022/12/31 05:18:36;;;;;;;103.30;43.63;;;;;;;8.90;100.00;101654.31;4999256;28;20128;-80
2022/12/31 05:21:03;;;;;;;98.05;43.75;;;;;;;8.87;100.00;101652.78;4999590;28;20029;-82
2022/12/31 05:23:28;;;;;;;96.97;43.63;;;;;;;8.94;100.00;101661.91;4998091;28;20063;-80
2022/12/31 05:25:54;;;;;;;104.40;44.95;;;;;;;8.99;100.00;101653.56;4999970;28;20038;-79
2022/12/31 05:28:20;;;;;;;104.75;45.15;;;;;;;9.06;100.00;101650.31;5001179;28;20535;-80
2022/12/31 05:30:49;;;;;;;104.07;43.75;;;;;;;9.09;100.00;101660.66;5004342;28;20071;-80
2022/12/31 05:33:16;;;;;;;95.22;44.13;;;;;;;9.18;100.00;101657.25;5014463;28;20088;-81
2022/12/31 05:35:41;;;;;;;106.55;46.55;;;;;;;9.13;100.00;101663.88;4997674;28;20034;-81
2022/12/31 05:38:07;;;;;;;105.63;46.70;;;;;;;9.16;100.00;101666.28;4997018;28;20038;-82
2022/12/31 05:40:32;;;;;;;107.90;46.92;;;;;;;8.99;100.00;101674.72;4998440;28;20030;-81
2022/12/31 05:42:58;;;;;;;95.85;44.47;;;;;;;9.07;100.00;101678.44;4996974;28;20037;-80
2022/12/31 05:45:24;;;;;;;96.63;45.95;;;;;;;9.04;100.00;101675.22;4995664;28;20041;-82
2022/12/31 05:47:49;;;;;;;105.70;47.33;;;;;;;9.01;100.00;101663.09;4995814;28;20049;-82
2022/12/31 05:50:15;;;;;;;117.90;46.67;;;;;;;8.99;100.00;101665.00;4995941;28;20068;-81
2022/12/31 05:52:42;;;;;;;103.10;46.42;;;;;;;9.08;100.00;101671.38;4997639;28;20061;-81
2022/12/31 05:55:08;;;;;;;104.07;45.42;;;;;;;9.16;100.00;101676.84;4997208;28;20045;-80
2022/12/31 05:57:33;;;;;;;106.75;49.38;;;;;;;9.05;100.00;101676.91;4996154;28;20117;-81
2022/12/31 05:59:59;;;;;;;97.38;45.13;;;;;;;9.20;100.00;101660.63;4995973;28;20543;-81
2022/12/31 06:02:24;;;;;;;106.88;46.90;;;;;;;9.31;100.00;101670.31;4997074;28;20563;-81
2022/12/31 06:04:50;;;;;;;104.82;47.75;;;;;;;9.17;100.00;101674.09;4997858;28;20035;-81
2022/12/31 06:07:16;;;;;;;112.85;47.33;;;;;;;9.14;100.00;101686.72;4996491;28;20060;-81
2022/12/31 06:09:42;;;;;;;99.50;46.17;;;;;;;9.03;100.00;101686.75;4996002;28;20039;-81
2022/12/31 06:12:08;;;;;;;112.55;47.88;;;;;;;9.02;100.00;101685.06;4997203;28;20393;-82
2022/12/31 06:14:34;;;;;;;99.75;46.22;;;;;;;8.95;100.00;101691.81;4999819;28;20050;-80
2022/12/31 06:17:00;;;;;;;111.20;50.47;;;;;;;8.98;100.00;101694.22;5021748;23;20046;-80
2022/12/31 06:19:26;;;;;;;103.32;48.28;;;;;;;9.06;100.00;101697.91;5001650;28;20046;-84
2022/12/31 06:21:51;;;;;;;104.63;48.10;;;;;;;8.97;100.00;101706.59;5001266;28;20128;-81
2022/12/31 06:24:17;;;;;;;109.63;48.60;;;;;;;8.93;100.00;101707.81;5002588;28;20043;-83
2022/12/31 06:26:45;;;;;;;117.57;50.63;;;;;;;8.90;100.00;101712.50;5000873;28;20054;-82
2022/12/31 06:29:11;;;;;;;113.50;49.30;;;;;;;8.80;100.00;101713.22;5000791;28;20065;-81
2022/12/31 06:31:39;;;;;;;107.20;48.15;;;;;;;8.78;100.00;101709.03;4999775;28;20038;-81
2022/12/31 06:34:05;;;;;;;112.63;51.05;;;;;;;8.61;100.00;101723.56;5000700;28;20098;-81
2022/12/31 06:36:30;;;;;;;120.53;51.33;;;;;;;8.65;100.00;101730.28;5000664;28;20532;-82
2022/12/31 06:38:58;;;;;;;123.93;54.17;;;;;;;8.68;100.00;101739.78;4999616;28;20038;-81
2022/12/31 06:41:23;;;;;;;110.70;51.25;;;;;;;8.78;100.00;101738.91;5000969;28;20549;-82
2022/12/31 06:43:49;;;;;;;114.00;51.38;;;;;;;8.66;100.00;101742.53;5003573;28;20022;-83
2022/12/31 06:46:17;;;;;;;116.03;50.63;;;;;;;8.62;100.00;101746.38;5003313;28;20046;-84
2022/12/31 06:48:43;;;;;;;108.75;49.00;;;;;;;8.62;100.00;101746.38;4985560;28;20030;-83
2022/12/31 06:51:12;;;;;;;110.00;48.03;;;;;;;8.70;100.00;101754.56;5002483;28;20049;-81
2022/12/31 06:53:37;;;;;;;114.38;48.55;;;;;;;8.71;100.00;101756.25;5002615;28;20034;-83
2022/12/31 06:56:13;;;;;;;109.55;47.72;;;;;;;8.83;100.00;101757.91;5003773;28;20052;-82
2022/12/31 06:58:40;;;;;;;115.55;49.25;;;;;;;9.04;100.00;101757.19;4982953;28;20601;-81
2022/12/31 07:01:18;;;;;;;110.10;47.75;;;;;;;9.03;100.00;101768.72;4999255;28;20026;-84
2022/12/31 07:04:10;;;;;;;109.03;49.22;;;;;;;9.02;100.00;101769.66;4983661;28;20043;-86
2022/12/31 07:06:50;;;;;;;121.93;50.92;;;;;;;8.97;100.00;101771.84;5000249;28;20493;-86
2022/12/31 07:09:34;;;;;;;109.88;48.38;;;;;;;9.03;100.00;101774.00;4998834;28;20100;-85
2022/12/31 07:12:23;;;;;;;116.97;48.45;;;;;;;8.88;100.00;101783.16;4997283;28;20039;-86
2022/12/31 07:14:57;;;;;;;114.30;50.42;;;;;;;8.82;100.00;101787.94;4980382;28;20030;-86
2022/12/31 07:17:57;;;;;;;114.65;49.67;;;;;;;8.94;100.00;101787.97;4979526;28;20426;-87
2022/12/31 07:20:23;;;;;;;110.32;49.75;;;;;;;8.89;100.00;101796.25;4994827;28;20050;-86
2022/12/31 07:22:49;;;;;;;109.82;49.33;;;;;;;9.02;100.00;101790.81;4997886;28;20129;-85
2022/12/31 07:25:17;;;;;;;113.20;50.85;;;;;;;8.78;100.00;101793.63;5000473;28;20102;-84
2022/12/31 07:28:16;;;;;;;104.68;47.38;;;;;;;8.85;100.00;101794.78;4972879;28;20038;-85
2022/12/31 07:30:49;;;;;;;107.22;48.67;;;;;;;8.85;100.00;101793.97;4988968;28;20030;-88
2022/12/31 07:33:26;;;;;;;109.95;51.13;;;;;;;8.78;100.00;101798.91;4970443;28;20035;-88
2022/12/31 07:36:10;;;;;;;97.68;47.05;;;;;;;8.77;100.00;101798.06;4990001;28;20034;-87
2022/12/31 07:38:46;;;;;;;110.65;50.40;;;;;;;8.91;100.00;101802.28;4995665;28;20401;-87
2022/12/31 07:41:34;;;;;;;110.45;51.05;;;;;;;9.05;100.00;101812.59;5021739;28;20047;-82
2022/12/31 07:44:25;;;;;;;111.28;49.42;;;;;;;9.12;100.00;101818.22;5020460;28;20069;-87
2022/12/31 07:46:56;;;;;;;116.75;49.25;;;;;;;9.05;100.00;101825.81;5005640;28;20081;-86
2022/12/31 07:49:23;;;;;;;110.63;51.03;;;;;;;9.09;100.00;101829.91;5003711;28;20034;-88
2022/12/31 07:51:49;;;;;;;114.45;50.35;;;;;;;9.17;100.00;101827.50;4996205;28;20037;-87
2022/12/31 07:54:15;;;;;;;115.45;50.30;;;;;;;9.20;100.00;101837.84;4996464;28;20030;-85
2022/12/31 07:56:42;;;;;;;103.07;47.95;;;;;;;9.25;100.00;101846.22;4996371;28;20046;-86
2022/12/31 07:59:46;;;;;;;110.88;49.13;;;;;;;9.09;100.00;101855.50;4996177;28;20031;-85
2022/12/31 08:02:38;;;;;;;108.35;48.63;;;;;;;9.10;100.00;101851.91;4996900;28;20027;-85
2022/12/31 08:05:22;;;;;;;103.57;49.78;;;;;;;9.24;100.00;101864.91;5000856;28;20067;-89
2022/12/31 08:08:24;;;;;;;114.38;50.65;;;;;;;9.13;100.00;101862.25;4999375;28;20053;-85
2022/12/31 08:11:08;;;;;;;103.13;49.50;;;;;;;9.20;100.00;101871.38;5001499;28;20041;-89
2022/12/31 08:13:34;;;;;;;106.60;50.38;;;;;;;9.12;100.00;101876.41;5007314;28;20037;-87
2022/12/31 08:16:01;;;;;;;118.60;50.00;;;;;;;8.98;100.00;101884.59;4995740;28;20042;-85
2022/12/31 08:18:27;;;;;;;113.45;49.65;;;;;;;8.98;100.00;101889.88;5006535;28;20053;-84
2022/12/31 08:21:23;;;;;;;105.28;48.53;;;;;;;9.13;100.00;101880.75;4980128;28;20030;-86
2022/12/31 08:23:58;;;;;;;111.13;52.13;;;;;;;9.18;100.00;101892.66;4985972;28;20394;-86
2022/12/31 08:26:36;;;;;;;102.07;51.42;;;;;;;9.41;100.00;101893.50;4966839;28;20035;-91
2022/12/31 08:29:25;;;;;;;100.47;48.30;;;;;;;9.57;100.00;101896.63;4986128;28;20039;-88
2022/12/31 08:32:01;;;;;;;110.60;52.33;;;;;;;9.54;100.00;101902.16;4969674;28;20043;-85
2022/12/31 08:34:35;;;;;;;105.03;49.40;;;;;;;9.65;100.00;101907.44;5001011;28;20048;-89
2022/12/31 08:37:13;;;;;;;100.10;48.28;;;;;;;9.83;100.00;101902.47;5024284;28;20508;-90
2022/12/31 08:39:54;;;;;;;95.70;49.15;;;;;;;9.73;100.00;101904.16;5004879;28;20060;-89
2022/12/31 08:43:01;;;;;;;105.85;51.00;;;;;;;9.88;100.00;101909.06;5008714;28;20034;-87
2022/12/31 08:45:52;;;;;;;98.00;49.90;;;;;;;9.60;100.00;101898.19;5027534;28;20052;-89
2022/12/31 08:48:33;;;;;;;98.00;49.83;;;;;;;9.65;100.00;101907.44;4986926;28;20041;-87
2022/12/31 08:50:59;;;;;;;99.80;49.38;;;;;;;9.60;100.00;101899.03;5026760;28;20045;-87
2022/12/31 08:53:25;;;;;;;94.30;49.67;;;;;;;9.75;100.00;101916.31;5017600;28;20035;-87
2022/12/31 08:56:06;;;;;;;104.72;48.53;;;;;;;9.62;100.00;101918.25;4999562;28;20093;-84
2022/12/31 08:58:55;;;;;;;103.78;50.92;;;;;;;9.58;100.00;101916.81;4985893;28;20147;-85
2022/12/31 09:01:25;;;;;;;101.50;52.63;;;;;;;9.49;100.00;101911.41;5007242;28;20031;-87
2022/12/31 09:04:03;;;;;;;100.18;49.63;;;;;;;9.76;100.00;101909.22;4981098;28;20066;-86
2022/12/31 09:06:40;;;;;;;108.65;50.90;;;;;;;9.40;100.00;101902.41;5015301;28;20022;-85
2022/12/31 09:09:26;;;;;;;109.18;52.83;;;;;;;9.20;100.00;101903.97;4991220;28;20041;-89
2022/12/31 09:12:02;;;;;;;109.45;53.60;;;;;;;9.12;100.00;101900.22;5005836;28;20030;-84
2022/12/31 09:14:45;;;;;;;104.03;50.88;;;;;;;9.05;100.00;101901.69;5004746;28;20042;-85
2022/12/31 09:17:42;;;;;;;104.90;53.15;;;;;;;9.22;100.00;101909.13;4983791;28;20038;-86
2022/12/31 09:20:16;;;;;;;108.88;53.88;;;;;;;9.25;100.00;101914.16;5009263;28;20080;-86
2022/12/31 09:22:42;;;;;;;110.28;53.08;;;;;;;9.34;100.00;101918.75;5011834;28;20034;-88
2022/12/31 09:25:13;;;;;;;108.78;53.30;;;;;;;9.58;100.00;101927.41;5013658;28;20042;-85
2022/12/31 09:28:00;;;;;;;98.78;49.83;;;;;;;10.03;100.00;101925.53;4995070;28;20034;-86
2022/12/31 09:30:30;;;;;;;105.82;51.15;;;;;;;9.83;100.00;101927.16;5002433;28;20117;-86
2022/12/31 09:33:24;;;;;;;99.70;49.28;;;;;;;9.71;100.00;101928.09;5008278;28;20053;-88
2022/12/31 09:35:52;;;;;;;100.32;49.72;;;;;;;9.65;100.00;101923.31;5002828;28;20038;-84
2022/12/31 09:38:29;;;;;;;98.63;48.08;;;;;;;9.91;100.00;101931.00;4992097;28;20073;-87
2022/12/31 09:41:24;;;;;;;96.22;47.95;;;;;;;9.99;100.00;101936.50;4988714;28;20061;-87
2022/12/31 09:44:23;;;;;;;112.07;51.08;;;;;;;9.81;100.00;101929.06;4996122;28;20109;-87
2022/12/31 09:47:26;;;;;;;98.53;50.67;;;;;;;9.76;100.00;101920.66;4997694;28;20064;-86
2022/12/31 09:50:16;;;;;;;98.80;48.80;;;;;;;9.76;100.00;101920.66;4970090;28;20038;-85
2022/12/31 09:53:22;;;;;;;105.28;52.25;;;;;;;9.99;100.00;101916.16;4998585;28;20113;-87
2022/12/31 09:55:53;;;;;;;94.38;47.20;;;;;;;10.36;100.00;101909.56;5001861;28;20034;-86
2022/12/31 09:58:54;;;;;;;100.47;49.40;;;;;;;10.67;100.00;101897.22;4997926;28;20446;-83
2022/12/31 10:01:29;;;;;;;88.93;46.42;;;;;;;10.80;100.00;101889.09;4993739;28;20672;-87
2022/12/31 10:04:05;;;;;;;84.40;42.72;;;;;;;10.89;100.00;101883.84;4924720;28;20466;-82
2022/12/31 10:07:03;;;;;;;87.57;46.20;;;;;;;10.69;100.00;101883.84;4970306;28;20450;-84
2022/12/31 10:09:54;;;;;;;90.50;46.33;;;;;;;10.56;100.00;101884.06;4988661;28;20496;-82
2022/12/31 10:12:45;;;;;;;87.97;43.83;;;;;;;10.52;100.00;101879.97;4994738;28;20034;-83
2022/12/31 10:15:51;;;;;;;73.60;40.45;;;;;;;10.87;100.00;101887.59;4991816;28;20066;-88
2022/12/31 10:18:22;;;;;;;82.00;41.50;;;;;;;10.87;100.00;101890.25;5000770;28;20041;-82
2022/12/31 10:21:37;;;;;;;75.05;38.75;;;;;;;10.62;100.00;101907.38;5003766;28;21765;-86
2022/12/31 10:24:17;;;;;;;72.85;37.85;;;;;;;10.92;100.00;101906.63;4918090;29;20044;-83
2022/12/31 10:26:55;;;;;;;73.57;38.78;;;;;;;11.03;100.00;101905.69;4995081;28;20069;-83
2022/12/31 10:29:58;;;;;;;71.35;36.70;;;;;;;11.29;100.00;101904.28;5012467;23;20051;-84
2022/12/31 10:33:01;;;;;;;71.18;36.63;;;;;;;10.93;100.00;101886.22;4987835;28;20039;-83
2022/12/31 10:35:37;;;;;;;;;;;;;;;11.01;100.00;101889.06;4990692;28;20031;-89
2022/12/31 10:38:26;;;;;;;80.78;38.78;;;;;;;10.94;100.00;101885.28;4991373;28;19922;-87
2022/12/31 10:41:10;;;;;;;74.85;36.97;;;;;;;11.01;100.00;101895.22;4992457;28;20061;-85
2022/12/31 10:44:01;;;;;;;59.45;32.70;;;;;;;11.36;100.00;101895.69;4983391;28;20398;-87
2022/12/31 10:46:32;;;;;;;62.13;33.08;;;;;;;11.38;100.00;101903.50;4995758;28;20030;-91
2022/12/31 10:49:15;;;;;;;68.80;36.63;;;;;;;11.05;100.00;101906.41;4994063;28;20136;-85
2022/12/31 10:52:04;;;;;;;67.53;36.10;;;;;;;11.18;100.00;101907.03;4976985;28;20030;-82
2022/12/31 10:54:32;;;;;;;76.07;36.75;;;;;;;11.27;100.00;101904.41;4970178;28;20035;-82
2022/12/31 10:57:07;;;;;;;75.53;38.15;;;;;;;11.11;100.00;101896.09;4980697;28;20678;-88
2022/12/31 10:59:36;;;;;;;74.63;36.70;;;;;;;11.07;100.00;101915.09;4959688;28;20047;-83
2022/12/31 11:02:39;;;;;;;67.55;37.50;;;;;;;11.09;100.00;101919.28;4980368;28;20136;-82
2022/12/31 11:05:26;;;;;;;71.95;37.63;;;;;;;11.25;100.00;101924.94;5000234;28;20038;-80
2022/12/31 11:07:58;;;;;;;68.95;36.25;;;;;;;11.51;100.00;101933.31;5018815;28;20042;-85
2022/12/31 11:10:52;;;;;;;75.10;38.80;;;;;;;11.66;100.00;101929.31;5018525;28;20038;-84
2022/12/31 11:13:48;;;;;;;79.50;41.80;;;;;;;11.77;100.00;101921.25;4999350;28;20061;-84
2022/12/31 11:16:42;;;;;;;75.55;42.00;;;;;;;11.48;100.00;101914.13;4998726;28;20188;-86
2022/12/31 11:19:30;;;;;;;82.43;42.97;;;;;;;11.48;100.00;101911.50;5018906;28;20141;-85
2022/12/31 11:22:33;;;;;;;75.82;43.97;;;;;;;11.67;100.00;101914.19;5016759;28;20030;-85
2022/12/31 11:25:20;;;;;;;79.60;43.88;;;;;;;11.62;100.00;101909.31;4997077;28;20046;-87
2022/12/31 11:28:22;;;;;;;82.53;45.53;;;;;;;11.48;100.00;101907.03;4980831;28;20138;-84
2022/12/31 11:31:16;;;;;;;83.70;46.80;;;;;;;11.43;100.00;101909.25;4996694;28;20061;-87
2022/12/31 11:34:12;;;;;;;85.97;45.88;;;;;;;11.23;100.00;101908.34;4980206;28;20095;-88
2022/12/31 11:40:03;;;;;;;79.85;44.83;;;;;;;11.22;100.00;101897.84;4962750;28;20083;-86
2022/12/31 11:42:56;;;;;;;83.35;45.10;;;;;;;11.27;100.00;101895.59;4942481;29;20039;-86
2022/12/31 11:45:36;;;;;;;87.40;45.17;;;;;;;11.40;100.00;101896.25;4958401;28;20077;-85
2022/12/31 11:48:19;;;;;;;83.05;44.75;;;;;;;11.42;100.00;101878.38;4944199;29;20117;-85